sensor_id;sensor_type;location;lat;lon;timestamp;temperature;humidity
41944;DHT22;27636;52.610;13.244;2023-02-01T00:01:12;3.90;99.90
41944;DHT22;27636;52.610;13.244;2023-02-01T00:06:16;3.70;99.90
41944;DHT22;27636;52.610;13.244;2023-02-01T00:11:20;3.60;99.90
41944;DHT22;27636;52.610;13.244;2023-02-01T00:16:26;3.20;99.90
41944;DHT22;27636;52.610;13.244;2023-02-01T00:21:31;3.50;99.90
41944;DHT22;27636;52.610;13.244;2023-02-01T00:26:36;3.50;99.90
41944;DHT22;27636;52.610;13.244;2023-02-01T00:31:42;3.50;99.90
41944;DHT22;27636;52.610;13.244;2023-02-01T00:36:47;3.50;99.90
41944;DHT22;27636;52.610;13.244;2023-02-01T00:41:51;3.60;99.90
41944;DHT22;27636;52.610;13.244;2023-02-01T00:46:56;3.60;99.90
41944;DHT22;27636;52.610;13.244;2023-02-01T00:52:00;3.60;99.90
41944;DHT22;27636;52.610;13.244;2023-02-01T00:57:04;3.80;99.90
41944;DHT22;27636;52.610;13.244;2023-02-01T01:02:09;3.70;99.90
41944;DHT22;27636;52.610;13.244;2023-02-01T01:07:14;3.50;99.90
41944;DHT22;27636;52.610;13.244;2023-02-01T01:12:18;3.50;99.90
41944;DHT22;27636;52.610;13.244;2023-02-01T01:17:24;3.50;99.90
41944;DHT22;27636;52.610;13.244;2023-02-01T01:22:28;3.50;99.90
41944;DHT22;27636;52.610;13.244;2023-02-01T01:27:31;3.50;99.90
41944;DHT22;27636;52.610;13.244;2023-02-01T01:32:37;3.50;99.90
41944;DHT22;27636;52.610;13.244;2023-02-01T01:37:41;3.60;99.90
41944;DHT22;27636;52.610;13.244;2023-02-01T01:42:44;3.50;99.90
41944;DHT22;27636;52.610;13.244;2023-02-01T01:47:53;3.60;99.90
41944;DHT22;27636;52.610;13.244;2023-02-01T01:53:01;3.60;99.90
41944;DHT22;27636;52.610;13.244;2023-02-01T01:58:09;3.60;99.90
41944;DHT22;27636;52.610;13.244;2023-02-01T02:03:18;3.50;99.90
41944;DHT22;27636;52.610;13.244;2023-02-01T02:08:24;3.60;99.90
41944;DHT22;27636;52.610;13.244;2023-02-01T02:13:32;3.60;99.90
41944;DHT22;27636;52.610;13.244;2023-02-01T02:18:45;3.70;99.90
41944;DHT22;27636;52.610;13.244;2023-02-01T02:24:25;3.70;99.90
41944;DHT22;27636;52.610;13.244;2023-02-01T02:30:02;3.80;99.90
41944;DHT22;27636;52.610;13.244;2023-02-01T02:35:18;3.80;99.90
41944;DHT22;27636;52.610;13.244;2023-02-01T02:40:31;3.90;99.90
41944;DHT22;27636;52.610;13.244;2023-02-01T02:45:40;4.00;99.90
41944;DHT22;27636;52.610;13.244;2023-02-01T02:51:09;4.00;99.90
41944;DHT22;27636;52.610;13.244;2023-02-01T02:56:35;3.90;99.90
41944;DHT22;27636;52.610;13.244;2023-02-01T03:01:57;4.00;99.90
41944;DHT22;27636;52.610;13.244;2023-02-01T03:13:02;3.90;99.90
41944;DHT22;27636;52.610;13.244;2023-02-01T03:18:11;3.90;99.90
41944;DHT22;27636;52.610;13.244;2023-02-01T03:23:18;3.80;99.90
41944;DHT22;27636;52.610;13.244;2023-02-01T03:28:25;3.80;99.90
41944;DHT22;27636;52.610;13.244;2023-02-01T03:33:31;3.80;99.90
41944;DHT22;27636;52.610;13.244;2023-02-01T03:38:39;3.80;99.90
41944;DHT22;27636;52.610;13.244;2023-02-01T03:43:52;3.80;99.90
41944;DHT22;27636;52.610;13.244;2023-02-01T03:48:59;3.60;99.90
41944;DHT22;27636;52.610;13.244;2023-02-01T03:54:05;3.80;99.90
41944;DHT22;27636;52.610;13.244;2023-02-01T03:59:12;3.90;99.90
41944;DHT22;27636;52.610;13.244;2023-02-01T04:04:18;3.80;99.90
41944;DHT22;27636;52.610;13.244;2023-02-01T04:09:30;4.00;99.90
41944;DHT22;27636;52.610;13.244;2023-02-01T04:14:35;4.30;99.90
41944;DHT22;27636;52.610;13.244;2023-02-01T04:19:39;4.50;99.90
41944;DHT22;27636;52.610;13.244;2023-02-01T04:24:43;4.60;99.90
41944;DHT22;27636;52.610;13.244;2023-02-01T04:29:48;4.50;99.90
41944;DHT22;27636;52.610;13.244;2023-02-01T04:34:53;4.70;99.90
41944;DHT22;27636;52.610;13.244;2023-02-01T04:39:57;4.80;99.90
41944;DHT22;27636;52.610;13.244;2023-02-01T04:45:03;4.80;99.90
41944;DHT22;27636;52.610;13.244;2023-02-01T04:50:08;4.80;99.90
41944;DHT22;27636;52.610;13.244;2023-02-01T04:55:14;4.80;99.90
41944;DHT22;27636;52.610;13.244;2023-02-01T05:00:19;4.80;99.90
41944;DHT22;27636;52.610;13.244;2023-02-01T05:05:24;4.90;99.90
41944;DHT22;27636;52.610;13.244;2023-02-01T05:10:28;5.00;99.90
41944;DHT22;27636;52.610;13.244;2023-02-01T05:15:33;5.10;99.90
41944;DHT22;27636;52.610;13.244;2023-02-01T05:20:37;5.00;99.90
41944;DHT22;27636;52.610;13.244;2023-02-01T05:25:40;5.10;99.90
41944;DHT22;27636;52.610;13.244;2023-02-01T05:30:45;5.10;99.90
41944;DHT22;27636;52.610;13.244;2023-02-01T05:35:49;5.10;99.90
41944;DHT22;27636;52.610;13.244;2023-02-01T05:42:52;5.30;99.90
41944;DHT22;27636;52.610;13.244;2023-02-01T05:47:56;5.20;99.90
41944;DHT22;27636;52.610;13.244;2023-02-01T05:53:00;5.20;99.90
41944;DHT22;27636;52.610;13.244;2023-02-01T05:58:05;5.30;99.90
41944;DHT22;27636;52.610;13.244;2023-02-01T06:03:08;5.20;99.90
41944;DHT22;27636;52.610;13.244;2023-02-01T06:08:13;5.50;99.90
41944;DHT22;27636;52.610;13.244;2023-02-01T06:13:18;5.40;99.90
41944;DHT22;27636;52.610;13.244;2023-02-01T06:18:23;5.20;99.90
41944;DHT22;27636;52.610;13.244;2023-02-01T06:23:27;5.20;99.90
41944;DHT22;27636;52.610;13.244;2023-02-01T06:28:32;5.00;99.90
41944;DHT22;27636;52.610;13.244;2023-02-01T06:33:36;4.90;99.90
41944;DHT22;27636;52.610;13.244;2023-02-01T06:38:40;4.80;99.90
41944;DHT22;27636;52.610;13.244;2023-02-01T06:43:45;4.70;99.90
41944;DHT22;27636;52.610;13.244;2023-02-01T06:48:50;4.80;99.90
41944;DHT22;27636;52.610;13.244;2023-02-01T06:53:55;4.60;99.90
41944;DHT22;27636;52.610;13.244;2023-02-01T06:59:03;4.70;99.90
41944;DHT22;27636;52.610;13.244;2023-02-01T07:04:08;4.70;99.90
41944;DHT22;27636;52.610;13.244;2023-02-01T07:09:13;4.70;99.90
41944;DHT22;27636;52.610;13.244;2023-02-01T07:14:18;4.80;99.90
41944;DHT22;27636;52.610;13.244;2023-02-01T07:19:22;4.70;99.90
41944;DHT22;27636;52.610;13.244;2023-02-01T07:24:25;4.60;99.90
41944;DHT22;27636;52.610;13.244;2023-02-01T07:29:30;4.60;99.90
41944;DHT22;27636;52.610;13.244;2023-02-01T07:34:34;4.70;99.90
41944;DHT22;27636;52.610;13.244;2023-02-01T07:39:38;4.70;99.90
41944;DHT22;27636;52.610;13.244;2023-02-01T07:44:43;4.70;99.90
41944;DHT22;27636;52.610;13.244;2023-02-01T07:49:46;4.60;99.90
41944;DHT22;27636;52.610;13.244;2023-02-01T07:54:50;4.40;99.90
41944;DHT22;27636;52.610;13.244;2023-02-01T07:59:55;4.40;99.90
41944;DHT22;27636;52.610;13.244;2023-02-01T08:05:19;4.20;99.90
41944;DHT22;27636;52.610;13.244;2023-02-01T08:10:23;4.10;99.90
41944;DHT22;27636;52.610;13.244;2023-02-01T08:15:29;4.10;99.90
41944;DHT22;27636;52.610;13.244;2023-02-01T08:20:33;4.00;99.90
41944;DHT22;27636;52.610;13.244;2023-02-01T08:25:39;4.00;99.90
41944;DHT22;27636;52.610;13.244;2023-02-01T08:30:44;4.00;99.90
41944;DHT22;27636;52.610;13.244;2023-02-01T08:35:48;4.00;99.90
41944;DHT22;27636;52.610;13.244;2023-02-01T08:40:52;3.90;99.90
41944;DHT22;27636;52.610;13.244;2023-02-01T08:45:57;3.90;99.90
41944;DHT22;27636;52.610;13.244;2023-02-01T08:51:01;3.80;99.90
41944;DHT22;27636;52.610;13.244;2023-02-01T08:56:06;3.90;99.90
41944;DHT22;27636;52.610;13.244;2023-02-01T09:01:15;3.90;99.90
41944;DHT22;27636;52.610;13.244;2023-02-01T09:06:20;4.00;99.90
41944;DHT22;27636;52.610;13.244;2023-02-01T09:11:24;4.20;99.90
41944;DHT22;27636;52.610;13.244;2023-02-01T09:16:31;4.30;99.90
41944;DHT22;27636;52.610;13.244;2023-02-01T09:21:35;4.60;99.90
41944;DHT22;27636;52.610;13.244;2023-02-01T09:26:39;4.50;99.90
41944;DHT22;27636;52.610;13.244;2023-02-01T09:31:44;4.40;99.90
41944;DHT22;27636;52.610;13.244;2023-02-01T09:37:05;4.40;99.90
41944;DHT22;27636;52.610;13.244;2023-02-01T09:42:19;4.60;99.90
41944;DHT22;27636;52.610;13.244;2023-02-01T09:47:27;4.60;99.90
41944;DHT22;27636;52.610;13.244;2023-02-01T09:52:34;4.70;99.90
41944;DHT22;27636;52.610;13.244;2023-02-01T09:57:44;4.80;99.90
41944;DHT22;27636;52.610;13.244;2023-02-01T10:02:54;4.70;99.90
41944;DHT22;27636;52.610;13.244;2023-02-01T10:08:03;4.60;99.90
41944;DHT22;27636;52.610;13.244;2023-02-01T10:13:23;4.40;99.90
41944;DHT22;27636;52.610;13.244;2023-02-01T10:18:49;4.50;99.90
41944;DHT22;27636;52.610;13.244;2023-02-01T10:24:05;4.60;99.90
41944;DHT22;27636;52.610;13.244;2023-02-01T10:29:24;4.60;99.90
41944;DHT22;27636;52.610;13.244;2023-02-01T10:34:31;4.80;99.90
41944;DHT22;27636;52.610;13.244;2023-02-01T10:39:35;5.20;99.90
41944;DHT22;27636;52.610;13.244;2023-02-01T10:44:43;5.00;99.90
41944;DHT22;27636;52.610;13.244;2023-02-01T10:49:55;4.70;99.90
41944;DHT22;27636;52.610;13.244;2023-02-01T10:55:27;4.60;99.90
41944;DHT22;27636;52.610;13.244;2023-02-01T11:00:42;4.50;99.90
41944;DHT22;27636;52.610;13.244;2023-02-01T11:05:50;4.60;99.90
41944;DHT22;27636;52.610;13.244;2023-02-01T11:10:58;4.70;99.90
41944;DHT22;27636;52.610;13.244;2023-02-01T11:16:04;5.00;99.90
41944;DHT22;27636;52.610;13.244;2023-02-01T11:21:10;5.30;99.90
41944;DHT22;27636;52.610;13.244;2023-02-01T11:26:20;5.80;99.90
41944;DHT22;27636;52.610;13.244;2023-02-01T11:31:27;6.00;99.90
41944;DHT22;27636;52.610;13.244;2023-02-01T11:36:33;6.00;99.90
41944;DHT22;27636;52.610;13.244;2023-02-01T11:41:44;6.10;99.90
41944;DHT22;27636;52.610;13.244;2023-02-01T11:46:48;5.90;99.90
41944;DHT22;27636;52.610;13.244;2023-02-01T11:52:02;5.80;99.90
41944;DHT22;27636;52.610;13.244;2023-02-01T11:57:19;6.10;99.90
41944;DHT22;27636;52.610;13.244;2023-02-01T12:02:45;6.50;99.90
41944;DHT22;27636;52.610;13.244;2023-02-01T12:13:36;6.90;99.90
41944;DHT22;27636;52.610;13.244;2023-02-01T12:19:03;6.80;99.90
41944;DHT22;27636;52.610;13.244;2023-02-01T12:24:30;6.70;99.90
41944;DHT22;27636;52.610;13.244;2023-02-01T12:29:56;6.50;99.90
41944;DHT22;27636;52.610;13.244;2023-02-01T12:35:38;6.20;99.90
41944;DHT22;27636;52.610;13.244;2023-02-01T12:40:54;6.00;99.90
41944;DHT22;27636;52.610;13.244;2023-02-01T12:46:04;5.90;99.90
41944;DHT22;27636;52.610;13.244;2023-02-01T12:51:13;5.90;99.90
41944;DHT22;27636;52.610;13.244;2023-02-01T12:56:22;6.00;99.90
41944;DHT22;27636;52.610;13.244;2023-02-01T13:01:31;6.10;99.90
41944;DHT22;27636;52.610;13.244;2023-02-01T13:06:41;5.90;99.90
41944;DHT22;27636;52.610;13.244;2023-02-01T13:11:49;5.80;99.90
41944;DHT22;27636;52.610;13.244;2023-02-01T13:16:59;5.30;99.90
41944;DHT22;27636;52.610;13.244;2023-02-01T13:22:06;5.10;99.90
41944;DHT22;27636;52.610;13.244;2023-02-01T13:27:17;5.20;99.90
41944;DHT22;27636;52.610;13.244;2023-02-01T13:32:40;5.60;99.90
41944;DHT22;27636;52.610;13.244;2023-02-01T13:38:20;6.10;99.90
41944;DHT22;27636;52.610;13.244;2023-02-01T13:43:31;6.40;99.90
41944;DHT22;27636;52.610;13.244;2023-02-01T13:48:40;6.40;99.90
41944;DHT22;27636;52.610;13.244;2023-02-01T13:53:47;6.50;99.90
41944;DHT22;27636;52.610;13.244;2023-02-01T13:58:53;6.60;99.90
41944;DHT22;27636;52.610;13.244;2023-02-01T14:03:58;6.50;99.90
41944;DHT22;27636;52.610;13.244;2023-02-01T14:09:35;6.50;99.90
41944;DHT22;27636;52.610;13.244;2023-02-01T14:14:42;6.50;99.90
41944;DHT22;27636;52.610;13.244;2023-02-01T14:19:45;6.00;99.90
41944;DHT22;27636;52.610;13.244;2023-02-01T14:24:51;5.70;99.90
41944;DHT22;27636;52.610;13.244;2023-02-01T14:30:01;5.60;99.90
41944;DHT22;27636;52.610;13.244;2023-02-01T14:35:12;5.50;99.90
41944;DHT22;27636;52.610;13.244;2023-02-01T14:40:23;5.40;99.90
41944;DHT22;27636;52.610;13.244;2023-02-01T14:45:49;5.50;99.90
41944;DHT22;27636;52.610;13.244;2023-02-01T14:50:54;5.40;99.90
41944;DHT22;27636;52.610;13.244;2023-02-01T14:56:06;5.40;99.90
41944;DHT22;27636;52.610;13.244;2023-02-01T15:01:20;5.50;99.90
41944;DHT22;27636;52.610;13.244;2023-02-01T15:06:27;5.50;99.90
41944;DHT22;27636;52.610;13.244;2023-02-01T15:11:53;5.40;99.90
41944;DHT22;27636;52.610;13.244;2023-02-01T15:16:59;5.30;99.90
41944;DHT22;27636;52.610;13.244;2023-02-01T15:22:03;5.10;99.90
41944;DHT22;27636;52.610;13.244;2023-02-01T15:27:08;4.90;99.90
41944;DHT22;27636;52.610;13.244;2023-02-01T15:37:41;4.80;99.90
41944;DHT22;27636;52.610;13.244;2023-02-01T15:42:51;4.50;99.90
41944;DHT22;27636;52.610;13.244;2023-02-01T15:47:57;4.40;99.90
41944;DHT22;27636;52.610;13.244;2023-02-01T15:53:02;4.00;99.90
41944;DHT22;27636;52.610;13.244;2023-02-01T15:58:06;3.40;99.90
41944;DHT22;27636;52.610;13.244;2023-02-01T16:03:26;2.90;99.90
41944;DHT22;27636;52.610;13.244;2023-02-01T16:08:31;2.90;99.90
41944;DHT22;27636;52.610;13.244;2023-02-01T16:13:37;2.90;99.90
41944;DHT22;27636;52.610;13.244;2023-02-01T16:18:41;2.80;99.90
41944;DHT22;27636;52.610;13.244;2023-02-01T16:23:49;2.90;99.90
41944;DHT22;27636;52.610;13.244;2023-02-01T16:28:53;2.90;99.90
41944;DHT22;27636;52.610;13.244;2023-02-01T16:33:57;2.80;99.90
41944;DHT22;27636;52.610;13.244;2023-02-01T16:39:02;2.80;99.90
41944;DHT22;27636;52.610;13.244;2023-02-01T16:44:06;2.80;99.90
41944;DHT22;27636;52.610;13.244;2023-02-01T16:49:17;2.80;99.90
41944;DHT22;27636;52.610;13.244;2023-02-01T16:54:23;2.90;99.90
41944;DHT22;27636;52.610;13.244;2023-02-01T16:59:26;2.90;99.90
41944;DHT22;27636;52.610;13.244;2023-02-01T17:04:30;2.90;99.90
41944;DHT22;27636;52.610;13.244;2023-02-01T17:09:35;3.00;99.90
41944;DHT22;27636;52.610;13.244;2023-02-01T17:14:39;3.10;99.90
41944;DHT22;27636;52.610;13.244;2023-02-01T17:19:44;3.20;99.90
41944;DHT22;27636;52.610;13.244;2023-02-01T17:24:51;3.20;99.90
41944;DHT22;27636;52.610;13.244;2023-02-01T17:29:54;3.30;99.90
41944;DHT22;27636;52.610;13.244;2023-02-01T17:34:59;3.30;99.90
41944;DHT22;27636;52.610;13.244;2023-02-01T17:40:06;3.40;99.90
41944;DHT22;27636;52.610;13.244;2023-02-01T17:45:27;3.50;99.90
41944;DHT22;27636;52.610;13.244;2023-02-01T17:50:37;3.60;99.90
41944;DHT22;27636;52.610;13.244;2023-02-01T17:55:44;3.60;99.90
41944;DHT22;27636;52.610;13.244;2023-02-01T18:00:48;3.70;99.90
41944;DHT22;27636;52.610;13.244;2023-02-01T18:05:54;3.80;99.90
41944;DHT22;27636;52.610;13.244;2023-02-01T18:11:00;3.70;99.90
41944;DHT22;27636;52.610;13.244;2023-02-01T18:16:07;3.80;99.90
41944;DHT22;27636;52.610;13.244;2023-02-01T18:21:16;3.80;99.90
41944;DHT22;27636;52.610;13.244;2023-02-01T18:26:21;3.80;99.90
41944;DHT22;27636;52.610;13.244;2023-02-01T18:31:26;3.80;99.90
41944;DHT22;27636;52.610;13.244;2023-02-01T18:36:32;3.80;99.90
41944;DHT22;27636;52.610;13.244;2023-02-01T18:41:37;4.00;99.90
41944;DHT22;27636;52.610;13.244;2023-02-01T18:46:40;4.00;99.90
41944;DHT22;27636;52.610;13.244;2023-02-01T18:51:44;4.00;99.90
41944;DHT22;27636;52.610;13.244;2023-02-01T18:56:51;4.00;99.90
41944;DHT22;27636;52.610;13.244;2023-02-01T19:01:54;4.00;99.90
41944;DHT22;27636;52.610;13.244;2023-02-01T19:06:58;4.10;99.90
41944;DHT22;27636;52.610;13.244;2023-02-01T19:12:05;4.10;99.90
41944;DHT22;27636;52.610;13.244;2023-02-01T19:17:09;4.20;99.90
41944;DHT22;27636;52.610;13.244;2023-02-01T19:22:13;4.20;99.90
41944;DHT22;27636;52.610;13.244;2023-02-01T19:27:18;4.20;99.90
41944;DHT22;27636;52.610;13.244;2023-02-01T19:32:21;4.20;99.90
41944;DHT22;27636;52.610;13.244;2023-02-01T19:37:25;4.30;99.90
41944;DHT22;27636;52.610;13.244;2023-02-01T19:42:30;4.30;99.90
41944;DHT22;27636;52.610;13.244;2023-02-01T19:47:34;4.30;99.90
41944;DHT22;27636;52.610;13.244;2023-02-01T19:52:37;4.30;99.90
41944;DHT22;27636;52.610;13.244;2023-02-01T19:57:42;4.40;99.90
41944;DHT22;27636;52.610;13.244;2023-02-01T20:02:47;4.40;99.90
41944;DHT22;27636;52.610;13.244;2023-02-01T20:07:51;4.30;99.90
41944;DHT22;27636;52.610;13.244;2023-02-01T20:12:57;4.30;99.90
41944;DHT22;27636;52.610;13.244;2023-02-01T20:18:02;4.40;99.90
41944;DHT22;27636;52.610;13.244;2023-02-01T20:23:07;4.40;99.90
41944;DHT22;27636;52.610;13.244;2023-02-01T20:28:13;4.30;99.90
41944;DHT22;27636;52.610;13.244;2023-02-01T20:33:17;4.40;99.90
41944;DHT22;27636;52.610;13.244;2023-02-01T20:38:22;4.30;99.90
41944;DHT22;27636;52.610;13.244;2023-02-01T20:43:28;4.30;99.90
41944;DHT22;27636;52.610;13.244;2023-02-01T20:48:32;4.30;99.90
41944;DHT22;27636;52.610;13.244;2023-02-01T20:53:36;4.30;99.90
41944;DHT22;27636;52.610;13.244;2023-02-01T20:58:41;4.10;99.90
41944;DHT22;27636;52.610;13.244;2023-02-01T21:03:45;4.10;99.90
41944;DHT22;27636;52.610;13.244;2023-02-01T21:08:49;4.00;99.90
41944;DHT22;27636;52.610;13.244;2023-02-01T21:13:53;3.80;99.90
41944;DHT22;27636;52.610;13.244;2023-02-01T21:18:56;3.60;99.90
41944;DHT22;27636;52.610;13.244;2023-02-01T21:24:00;3.70;99.90
41944;DHT22;27636;52.610;13.244;2023-02-01T21:29:06;3.80;99.90
41944;DHT22;27636;52.610;13.244;2023-02-01T21:34:10;3.70;99.90
41944;DHT22;27636;52.610;13.244;2023-02-01T21:39:13;3.60;99.90
41944;DHT22;27636;52.610;13.244;2023-02-01T21:44:21;3.50;99.90
41944;DHT22;27636;52.610;13.244;2023-02-01T21:49:24;3.50;99.90
41944;DHT22;27636;52.610;13.244;2023-02-01T21:54:29;3.50;99.90
41944;DHT22;27636;52.610;13.244;2023-02-01T21:59:34;3.50;99.90
41944;DHT22;27636;52.610;13.244;2023-02-01T22:04:38;3.60;99.90
41944;DHT22;27636;52.610;13.244;2023-02-01T22:09:41;3.80;99.90
41944;DHT22;27636;52.610;13.244;2023-02-01T22:14:46;3.80;99.90
41944;DHT22;27636;52.610;13.244;2023-02-01T22:19:51;3.80;99.90
41944;DHT22;27636;52.610;13.244;2023-02-01T22:24:54;4.00;99.90
41944;DHT22;27636;52.610;13.244;2023-02-01T22:29:59;4.10;99.90
41944;DHT22;27636;52.610;13.244;2023-02-01T22:35:03;4.20;99.90
41944;DHT22;27636;52.610;13.244;2023-02-01T22:40:09;4.20;99.90
41944;DHT22;27636;52.610;13.244;2023-02-01T22:45:14;4.00;99.90
41944;DHT22;27636;52.610;13.244;2023-02-01T22:50:17;4.10;99.90
41944;DHT22;27636;52.610;13.244;2023-02-01T22:55:21;4.20;99.90
41944;DHT22;27636;52.610;13.244;2023-02-01T23:00:26;4.20;99.90
41944;DHT22;27636;52.610;13.244;2023-02-01T23:05:30;4.20;99.90
41944;DHT22;27636;52.610;13.244;2023-02-01T23:10:33;4.20;99.90
41944;DHT22;27636;52.610;13.244;2023-02-01T23:15:38;4.20;99.90
41944;DHT22;27636;52.610;13.244;2023-02-01T23:20:42;4.20;99.90
41944;DHT22;27636;52.610;13.244;2023-02-01T23:25:48;4.00;99.90
41944;DHT22;27636;52.610;13.244;2023-02-01T23:30:53;4.10;99.90
41944;DHT22;27636;52.610;13.244;2023-02-01T23:35:58;4.00;99.90
41944;DHT22;27636;52.610;13.244;2023-02-01T23:41:03;4.00;99.90
41944;DHT22;27636;52.610;13.244;2023-02-01T23:46:08;4.20;99.90
41944;DHT22;27636;52.610;13.244;2023-02-01T23:51:12;4.40;99.90
41944;DHT22;27636;52.610;13.244;2023-02-01T23:56:20;4.50;99.90
